createdAt,value
2022-07-26T00:01:35.689Z,101122.39
2022-07-26T00:04:06.767Z,101127.98
2022-07-26T00:06:35.676Z,101129.54
2022-07-26T00:09:06.093Z,101131.72
2022-07-26T00:11:35.674Z,101134.44
2022-07-26T00:14:07.484Z,101137.15999999999
2022-07-26T00:16:36.646Z,101134.56
2022-07-26T00:19:06.618Z,101136.63
2022-07-26T00:26:35.896Z,101140.73
2022-07-26T00:29:06.159Z,101145.34999999999
2022-07-26T00:31:35.907Z,101145.43
2022-07-26T00:34:05.623Z,101146.65
2022-07-26T00:36:35.671Z,101151.51
2022-07-26T00:39:06.142Z,101149.97
2022-07-26T00:44:05.662Z,101151.85
2022-07-26T00:46:35.875Z,101150.9
2022-07-26T00:49:06.128Z,101148.64
2022-07-26T00:54:06.101Z,101149.17
2022-07-26T00:59:06.362Z,101148.36
2022-07-26T01:01:35.911Z,101151.9
2022-07-26T01:09:06.011Z,101160.88
2022-07-26T01:11:35.798Z,101165.41
2022-07-26T01:14:05.964Z,101169.06
2022-07-26T01:16:35.733Z,101169.4
2022-07-26T01:19:05.724Z,101167.47
2022-07-26T01:21:35.898Z,101164.65
2022-07-26T01:24:06.801Z,101166.8
2022-07-26T01:26:35.646Z,101166.08
2022-07-26T01:29:05.936Z,101164.54
2022-07-26T01:31:35.939Z,101162.84000000001
2022-07-26T01:34:06.281Z,101167.13
2022-07-26T01:36:35.666Z,101167.57
2022-07-26T01:39:06.054Z,101168.92
2022-07-26T01:41:37.378Z,101178.2
2022-07-26T01:44:06.689Z,101185.29999999999
2022-07-26T01:46:35.802Z,101180.48999999999
2022-07-26T01:49:07.482Z,101185.02
2022-07-26T01:56:35.805Z,101190.26
2022-07-26T01:59:05.785Z,101189.11
2022-07-26T02:06:35.713Z,101204.18
2022-07-26T02:09:07.636Z,101204.78
2022-07-26T02:11:35.724Z,101207.64
2022-07-26T02:14:05.981Z,101209.84
2022-07-26T02:16:35.764Z,101210.13
2022-07-26T02:19:05.908Z,101205.8
2022-07-26T02:21:35.844Z,101204.98999999999
2022-07-26T02:24:06.897Z,101215.16
2022-07-26T02:29:06.966Z,101219.97
2022-07-26T02:31:35.771Z,101215.04
2022-07-26T02:34:05.918Z,101216.75
2022-07-26T02:36:35.869Z,101221.08
2022-07-26T02:39:05.842Z,101223.63
2022-07-26T02:41:35.833Z,101224.05
2022-07-26T02:44:09.282Z,101230.18
2022-07-26T02:46:36.532Z,101233.26
2022-07-26T02:49:05.776Z,101231.59000000001
2022-07-26T02:51:35.846Z,101236.84
2022-07-26T02:54:06.300Z,101241.02
2022-07-26T02:56:37.341Z,101242.90999999999
2022-07-26T02:59:06.615Z,101246.62
2022-07-26T03:01:37.982Z,101251.67
2022-07-26T03:04:07.098Z,101249.23999999999
2022-07-26T03:06:35.812Z,101253.06
2022-07-26T03:09:05.881Z,101252.72
2022-07-26T03:11:35.686Z,101254.86
2022-07-26T03:14:06.007Z,101258.76
2022-07-26T03:16:35.890Z,101258.1
2022-07-26T03:19:05.759Z,101261.6
2022-07-26T03:24:06.625Z,101268.16
2022-07-26T03:26:36.293Z,101273.8
2022-07-26T03:29:05.783Z,101273.40000000001
2022-07-26T03:31:35.985Z,101273.6
2022-07-26T03:34:06.172Z,101274.97
2022-07-26T03:36:35.766Z,101275.40000000001
2022-07-26T03:39:05.912Z,101276.95
2022-07-26T03:41:35.771Z,101284.16
2022-07-26T03:46:36.004Z,101290.77
2022-07-26T03:49:05.864Z,101296.72
2022-07-26T03:51:35.763Z,101305.44
2022-07-26T03:54:06.266Z,101299.51999999999
2022-07-26T03:56:35.741Z,101301.11
2022-07-26T03:59:08.345Z,101305.3
2022-07-26T04:01:40.655Z,101303.7
2022-07-26T04:04:06.259Z,101302.28
2022-07-26T04:09:06.763Z,101305.14
2022-07-26T04:11:35.846Z,101306.98999999999
2022-07-26T04:14:06.120Z,101312.53
2022-07-26T04:16:40.085Z,101315.71
2022-07-26T04:19:06.329Z,101326.48000000001
2022-07-26T04:21:35.710Z,101334.78
2022-07-26T04:26:36.240Z,101347.36
2022-07-26T04:29:05.792Z,101347.2
2022-07-26T04:31:36.427Z,101350.21
2022-07-26T04:34:06.028Z,101351.67
2022-07-26T04:36:35.756Z,101352.36
2022-07-26T04:39:05.933Z,101355.38
2022-07-26T04:41:36.068Z,101358.61
2022-07-26T04:44:06.033Z,101360.33
2022-07-26T04:49:05.845Z,101362.48000000001
2022-07-26T04:51:35.879Z,101360.77
2022-07-26T04:54:06.070Z,101364.84
2022-07-26T04:56:35.798Z,101358.8
2022-07-26T04:59:05.751Z,101365.09
2022-07-26T05:01:35.789Z,101371.31000000001
2022-07-26T05:04:06.391Z,101377.94
2022-07-26T05:06:35.970Z,101384.63
2022-07-26T05:09:05.829Z,101382.9
2022-07-26T05:11:35.808Z,101391.86
2022-07-26T05:14:06.091Z,101397.49
2022-07-26T05:16:36.035Z,101402.37
2022-07-26T05:19:05.802Z,101408.72
2022-07-26T05:21:35.743Z,101410.5
2022-07-26T05:24:07.458Z,101409.91
2022-07-26T05:26:35.738Z,101411.99
2022-07-26T05:29:05.976Z,101420.43
2022-07-26T05:31:35.810Z,101430.40999999999
2022-07-26T05:34:07.263Z,101436.56
2022-07-26T05:36:35.764Z,101435.89
2022-07-26T05:39:05.788Z,101438.23
2022-07-26T05:41:35.876Z,101437.35
2022-07-26T05:44:06.333Z,101440.36
2022-07-26T05:46:36.330Z,101439.08
2022-07-26T05:49:06.193Z,101442.74
2022-07-26T05:51:35.898Z,101442.83
2022-07-26T05:54:06.507Z,101450.76000000001
2022-07-26T05:56:35.855Z,101457.23000000001
2022-07-26T05:59:05.870Z,101469.22
2022-07-26T06:01:35.784Z,101473.64
2022-07-26T06:04:06.398Z,101475.92
2022-07-26T06:09:06.188Z,101483.89
2022-07-26T06:11:35.761Z,101485.79999999999
2022-07-26T06:14:05.822Z,101488.69
2022-07-26T06:16:35.885Z,101489.5
2022-07-26T06:19:05.797Z,101493.33
2022-07-26T06:21:35.978Z,101501.08
2022-07-26T06:24:06.343Z,101500.31
2022-07-26T06:26:35.857Z,101504.67
2022-07-26T06:29:05.892Z,101504.19
2022-07-26T06:31:36.417Z,101509.67000000001
2022-07-26T06:34:06.253Z,101512.05
2022-07-26T06:36:35.847Z,101517.52
2022-07-26T06:39:05.917Z,101514.86
2022-07-26T06:41:35.937Z,101515.8
2022-07-26T06:44:06.249Z,101512.81
2022-07-26T06:46:36.107Z,101520.26
2022-07-26T06:49:06.010Z,101527.29000000001
2022-07-26T06:51:35.818Z,101540.9
2022-07-26T06:54:06.306Z,101550.19
2022-07-26T06:59:09.375Z,101568.58
2022-07-26T07:01:59.786Z,101574.39
2022-07-26T07:04:06.263Z,101582.76
2022-07-26T07:06:35.911Z,101576.14
2022-07-26T07:09:08.268Z,101571.94
2022-07-26T07:11:35.987Z,101575.8
2022-07-26T07:14:06.264Z,101569.9
2022-07-26T07:16:35.855Z,101574.40000000001
2022-07-26T07:19:06.197Z,101570.62
2022-07-26T07:21:35.788Z,101568.14
2022-07-26T07:24:06.831Z,101565.91
2022-07-26T07:26:36.751Z,101563.08
2022-07-26T07:29:06.274Z,101567.72
2022-07-26T07:31:48.987Z,101565.84
2022-07-26T07:34:06.231Z,101577.12
2022-07-26T07:36:35.932Z,101576.23
2022-07-26T07:39:07.090Z,101579.38
2022-07-26T07:41:37.356Z,101583.09000000001
2022-07-26T07:44:06.305Z,101585.27
2022-07-26T07:46:36.111Z,101587.45
2022-07-26T07:49:06.117Z,101588.05
2022-07-26T07:51:36.209Z,101587.45
2022-07-26T07:54:06.373Z,101590.58
2022-07-26T07:56:35.837Z,101597.88
2022-07-26T07:59:06.204Z,101598.91
2022-07-26T08:01:40.379Z,101601.03
2022-07-26T08:04:05.955Z,101607.87
2022-07-26T08:06:36.157Z,101609.81
2022-07-26T08:09:08.006Z,101611.83
2022-07-26T08:11:35.996Z,101619.73000000001
2022-07-26T08:14:07.685Z,101614.37
2022-07-26T08:16:35.992Z,101619.72
2022-07-26T08:19:05.853Z,101620.87
2022-07-26T08:21:36.018Z,101618.96
2022-07-26T08:24:06.424Z,101623.55
2022-07-26T08:26:37.661Z,101624.87999999999
2022-07-26T08:29:05.974Z,101635.63
2022-07-26T08:31:36.238Z,101639.36
2022-07-26T08:34:05.956Z,101647.70999999999
2022-07-26T08:36:35.844Z,101652.18
2022-07-26T08:39:06.789Z,101656.32
2022-07-26T08:41:39.295Z,101660.29999999999
2022-07-26T08:44:07.312Z,101659.96
2022-07-26T08:46:37.781Z,101665.25
2022-07-26T08:49:09.166Z,101665.99
2022-07-26T08:51:39.103Z,101665.36
2022-07-26T08:54:06.340Z,101670.67
2022-07-26T08:56:40.533Z,101673.38
2022-07-26T08:59:17.192Z,101679.0
2022-07-26T09:01:50.461Z,101685.51999999999
2022-07-26T09:04:30.409Z,101690.17
2022-07-26T09:06:35.894Z,101695.03
2022-07-26T09:09:10.416Z,101696.25
2022-07-26T09:11:35.840Z,101686.39
2022-07-26T09:14:05.968Z,101687.33
2022-07-26T09:16:39.635Z,101690.67
2022-07-26T09:19:15.803Z,101691.52
2022-07-26T09:24:06.041Z,101695.54000000001
2022-07-26T09:26:36.202Z,101701.23
2022-07-26T09:29:08.166Z,101706.47
2022-07-26T09:31:37.382Z,101707.75
2022-07-26T09:34:06.986Z,101710.97
2022-07-26T09:36:49.408Z,101706.95
2022-07-26T09:39:06.281Z,101719.23000000001
2022-07-26T09:41:36.687Z,101718.73000000001
2022-07-26T09:44:19.960Z,101720.34
2022-07-26T09:46:51.067Z,101722.20999999999
2022-07-26T09:49:16.130Z,101729.01000000001
2022-07-26T09:51:38.955Z,101733.06
2022-07-26T09:54:07.102Z,101724.65999999999
2022-07-26T09:56:44.755Z,101730.11
2022-07-26T09:59:05.931Z,101730.38
2022-07-26T10:01:36.068Z,101732.06
2022-07-26T10:04:06.759Z,101738.83
2022-07-26T10:06:36.423Z,101737.69
2022-07-26T10:09:07.447Z,101737.25
2022-07-26T10:11:40.777Z,101743.19
2022-07-26T10:14:25.692Z,101744.38
2022-07-26T10:16:35.938Z,101750.34000000001
2022-07-26T10:19:07.108Z,101748.69
2022-07-26T10:21:36.444Z,101752.01
2022-07-26T10:24:23.725Z,101750.05
2022-07-26T10:26:39.346Z,101757.11
2022-07-26T10:29:25.816Z,101750.67
2022-07-26T10:31:36.123Z,101751.56
2022-07-26T10:34:07.256Z,101748.51999999999
2022-07-26T10:36:38.511Z,101746.8
2022-07-26T10:39:11.156Z,101748.17
2022-07-26T10:41:38.313Z,101751.59999999999
2022-07-26T10:44:15.421Z,101756.79000000001
2022-07-26T10:46:55.837Z,101761.72
2022-07-26T10:49:06.730Z,101761.95999999999
2022-07-26T10:51:38.445Z,101764.26
2022-07-26T10:54:08.803Z,101766.44
2022-07-26T10:56:36.669Z,101770.9
2022-07-26T10:59:06.502Z,101776.4
2022-07-26T11:01:37.852Z,101782.58
2022-07-26T11:04:16.794Z,101785.91
2022-07-26T11:06:35.950Z,101783.06
2022-07-26T11:09:09.434Z,101779.61
2022-07-26T11:14:07.364Z,101786.0
2022-07-26T11:16:37.987Z,101795.64
2022-07-26T11:19:15.070Z,101790.9
2022-07-26T11:21:36.102Z,101788.73
2022-07-26T11:24:06.685Z,101788.18
2022-07-26T11:26:44.556Z,101790.91
2022-07-26T11:29:06.821Z,101790.91
2022-07-26T11:31:49.570Z,101797.19
2022-07-26T11:34:08.764Z,101792.61
2022-07-26T11:36:38.494Z,101798.51
2022-07-26T11:39:08.818Z,101798.41
2022-07-26T11:41:36.499Z,101803.85
2022-07-26T11:44:06.016Z,101801.12000000001
2022-07-26T11:46:38.179Z,101797.39
2022-07-26T11:49:15.329Z,101805.1
2022-07-26T11:51:36.022Z,101811.99
2022-07-26T11:54:06.104Z,101811.95
2022-07-26T11:56:36.219Z,101806.83
2022-07-26T11:59:06.308Z,101802.17
2022-07-26T12:01:36.226Z,101803.49
2022-07-26T12:04:18.098Z,101807.76
2022-07-26T12:06:37.969Z,101811.46
2022-07-26T12:09:06.131Z,101811.72
2022-07-26T12:11:38.753Z,101804.96
2022-07-26T12:14:06.600Z,101807.6
2022-07-26T12:16:38.574Z,101810.35
2022-07-26T12:19:07.773Z,101814.56
2022-07-26T12:21:38.411Z,101814.29000000001
2022-07-26T12:24:07.202Z,101825.57
2022-07-26T12:26:37.114Z,101824.28
2022-07-26T12:29:16.746Z,101822.37
2022-07-26T12:31:36.067Z,101823.40000000001
2022-07-26T12:34:06.278Z,101823.72
2022-07-26T12:36:36.382Z,101827.33
2022-07-26T12:39:06.347Z,101829.19
2022-07-26T12:41:38.253Z,101824.3
2022-07-26T12:44:10.305Z,101824.83
2022-07-26T12:46:36.421Z,101827.81
2022-07-26T12:49:06.372Z,101830.44
2022-07-26T12:51:36.100Z,101832.17
2022-07-26T12:54:06.672Z,101832.61
2022-07-26T12:56:36.043Z,101835.19
2022-07-26T12:59:06.056Z,101833.42
2022-07-26T13:01:36.172Z,101842.33
2022-07-26T13:04:06.022Z,101841.92
2022-07-26T13:06:36.161Z,101834.99
2022-07-26T13:09:05.991Z,101836.58
2022-07-26T13:11:36.186Z,101838.0
2022-07-26T13:14:06.146Z,101839.12
2022-07-26T13:16:36.147Z,101842.17
2022-07-26T13:19:06.213Z,101846.19
2022-07-26T13:21:36.031Z,101855.5
2022-07-26T13:26:36.329Z,101861.53
2022-07-26T13:29:05.969Z,101861.08
2022-07-26T13:31:36.140Z,101854.49
2022-07-26T13:34:06.067Z,101853.45
2022-07-26T13:36:36.133Z,101857.89
2022-07-26T13:39:06.263Z,101856.59000000001
2022-07-26T13:41:37.652Z,101853.45
2022-07-26T13:44:06.179Z,101854.64
2022-07-26T13:46:36.249Z,101856.98
2022-07-26T13:49:06.374Z,101857.73000000001
2022-07-26T13:51:47.247Z,101860.68000000001
2022-07-26T13:54:05.987Z,101857.19
2022-07-26T13:56:36.185Z,101861.47
2022-07-26T13:59:06.160Z,101853.66
2022-07-26T14:01:44.747Z,101862.13
2022-07-26T14:04:08.198Z,101859.3
2022-07-26T14:06:36.618Z,101866.42
2022-07-26T14:09:10.825Z,101869.39
2022-07-26T14:11:36.452Z,101862.05
2022-07-26T14:14:06.327Z,101863.48000000001
2022-07-26T14:16:36.704Z,101865.86
2022-07-26T14:19:06.508Z,101867.17
2022-07-26T14:21:38.721Z,101871.61
2022-07-26T14:24:06.300Z,101873.15999999999
2022-07-26T14:26:36.084Z,101871.47
2022-07-26T14:29:06.047Z,101873.5
2022-07-26T14:31:36.372Z,101877.73
2022-07-26T14:34:06.185Z,101885.99
2022-07-26T14:36:36.192Z,101875.58
2022-07-26T14:41:36.175Z,101880.25
2022-07-26T14:44:06.177Z,101884.09
2022-07-26T14:46:36.155Z,101887.36
2022-07-26T14:49:06.111Z,101881.38
2022-07-26T14:51:36.189Z,101882.95000000001
2022-07-26T14:54:06.294Z,101885.72
2022-07-26T14:56:36.012Z,101887.39
2022-07-26T14:59:06.161Z,101889.9
2022-07-26T15:01:36.207Z,101889.95
2022-07-26T15:04:06.258Z,101894.09000000001
2022-07-26T15:06:36.407Z,101900.05
2022-07-26T15:09:06.061Z,101899.93
2022-07-26T15:14:06.514Z,101910.75
2022-07-26T15:16:36.178Z,101911.51999999999
2022-07-26T15:19:06.100Z,101915.48
2022-07-26T15:21:36.125Z,101916.15000000001
2022-07-26T15:24:08.669Z,101911.5
2022-07-26T15:26:36.180Z,101910.63
2022-07-26T15:29:06.077Z,101915.25
2022-07-26T15:31:36.695Z,101916.66
2022-07-26T15:34:07.522Z,101914.58
2022-07-26T15:36:36.326Z,101911.05
2022-07-26T15:39:16.464Z,101908.15
2022-07-26T15:44:10.120Z,101911.55
2022-07-26T15:46:36.179Z,101909.77
2022-07-26T15:49:06.662Z,101904.16
2022-07-26T15:51:37.288Z,101912.15999999999
2022-07-26T15:54:09.420Z,101911.37999999999
2022-07-26T15:56:36.458Z,101907.08
2022-07-26T15:59:06.541Z,101908.44
2022-07-26T16:01:36.907Z,101913.14
2022-07-26T16:04:06.296Z,101903.26
2022-07-26T16:06:36.167Z,101907.95000000001
2022-07-26T16:09:16.458Z,101905.44
2022-07-26T16:11:36.039Z,101906.81
2022-07-26T16:16:36.270Z,101901.28
2022-07-26T16:19:06.069Z,101897.83
2022-07-26T16:24:07.660Z,101898.27
2022-07-26T16:26:36.109Z,101896.72
2022-07-26T16:29:06.350Z,101896.66
2022-07-26T16:31:36.545Z,101901.29
2022-07-26T16:34:06.266Z,101894.8
2022-07-26T16:36:36.637Z,101891.31
2022-07-26T16:39:06.201Z,101893.97
2022-07-26T16:44:06.458Z,101898.14
2022-07-26T16:46:36.360Z,101901.70000000001
2022-07-26T16:49:06.148Z,101896.87
2022-07-26T16:51:36.223Z,101902.8
2022-07-26T16:54:06.170Z,101900.22
2022-07-26T16:56:36.386Z,101902.94
2022-07-26T16:59:10.347Z,101900.48000000001
2022-07-26T17:01:36.136Z,101910.79999999999
2022-07-26T17:04:06.162Z,101907.23000000001
2022-07-26T17:06:36.239Z,101906.98999999999
2022-07-26T17:09:06.343Z,101909.53
2022-07-26T17:11:36.257Z,101904.86
2022-07-26T17:14:06.139Z,101905.42
2022-07-26T17:16:36.607Z,101906.51000000001
2022-07-26T17:19:06.304Z,101909.3
2022-07-26T17:21:36.334Z,101917.61
2022-07-26T17:24:06.866Z,101922.77
2022-07-26T17:26:36.460Z,101920.62
2022-07-26T17:29:06.165Z,101920.48
2022-07-26T17:31:36.197Z,101923.05
2022-07-26T17:36:36.472Z,101922.42
2022-07-26T17:39:06.136Z,101925.51
2022-07-26T17:41:36.359Z,101923.36
2022-07-26T17:44:06.120Z,101924.25
2022-07-26T17:46:36.347Z,101924.28
2022-07-26T17:49:06.436Z,101921.73
2022-07-26T17:51:36.531Z,101919.20999999999
2022-07-26T17:54:06.730Z,101923.06999999999
2022-07-26T17:56:36.099Z,101917.57
2022-07-26T17:59:07.320Z,101919.65
2022-07-26T18:01:36.329Z,101920.31
2022-07-26T18:09:07.264Z,101913.23
2022-07-26T18:11:37.760Z,101907.74
2022-07-26T18:14:07.136Z,101904.40999999999
2022-07-26T18:16:37.235Z,101905.8
2022-07-26T18:19:06.440Z,101905.83
2022-07-26T18:21:36.150Z,101897.28
2022-07-26T18:26:36.298Z,101900.31
2022-07-26T18:29:06.651Z,101900.94
2022-07-26T18:31:37.050Z,101904.66
2022-07-26T18:34:06.838Z,101903.7
2022-07-26T18:36:36.121Z,101900.78
2022-07-26T18:39:06.427Z,101903.63
2022-07-26T18:41:36.174Z,101905.25
2022-07-26T18:44:06.198Z,101908.61
2022-07-26T18:46:36.287Z,101908.87
2022-07-26T18:49:07.147Z,101914.18
2022-07-26T18:51:36.447Z,101913.75
2022-07-26T18:54:06.307Z,101915.59
2022-07-26T18:56:36.119Z,101914.45
2022-07-26T18:59:06.242Z,101916.78
2022-07-26T19:01:36.343Z,101913.62000000001
2022-07-26T19:04:07.405Z,101922.31
2022-07-26T19:06:37.142Z,101930.76999999999
2022-07-26T19:09:06.263Z,101937.33
2022-07-26T19:11:37.569Z,101939.76
2022-07-26T19:14:06.192Z,101943.7
2022-07-26T19:16:36.636Z,101949.44
2022-07-26T19:19:06.217Z,101941.74
2022-07-26T19:24:06.415Z,101938.04000000001
2022-07-26T19:26:36.134Z,101936.1
2022-07-26T19:29:06.521Z,101938.79
2022-07-26T19:31:39.198Z,101933.96
2022-07-26T19:34:06.249Z,101938.31
2022-07-26T19:36:36.315Z,101941.3
2022-07-26T19:39:06.512Z,101945.01000000001
2022-07-26T19:41:36.541Z,101945.33
2022-07-26T19:44:06.153Z,101947.67
2022-07-26T19:46:36.366Z,101953.04
2022-07-26T19:49:06.331Z,101952.31
2022-07-26T19:54:06.978Z,101956.12999999999
2022-07-26T19:56:36.202Z,101956.88
2022-07-26T19:59:06.185Z,101957.87
2022-07-26T20:01:36.325Z,101955.58
2022-07-26T20:04:06.196Z,101956.56
2022-07-26T20:06:36.278Z,101960.31
2022-07-26T20:09:06.793Z,101960.27
2022-07-26T20:11:36.155Z,101960.69
2022-07-26T20:14:06.228Z,101966.52
2022-07-26T20:16:36.389Z,101962.37999999999
2022-07-26T20:19:06.258Z,101964.70000000001
2022-07-26T20:21:36.250Z,101962.67
2022-07-26T20:24:06.655Z,101963.81
2022-07-26T20:26:36.501Z,101965.06000000001
2022-07-26T20:29:06.662Z,101963.67
2022-07-26T20:31:36.454Z,101960.72
2022-07-26T20:34:06.175Z,101961.42
2022-07-26T20:36:36.350Z,101960.99
2022-07-26T20:39:06.201Z,101965.87
2022-07-26T20:41:36.437Z,101969.31
2022-07-26T20:44:06.553Z,101970.23000000001
2022-07-26T20:46:38.919Z,101972.55
2022-07-26T20:49:07.062Z,101970.45000000001
2022-07-26T20:51:36.908Z,101963.7
2022-07-26T20:56:37.647Z,101969.36
2022-07-26T20:59:06.248Z,101972.28
2022-07-26T21:06:36.318Z,101975.81
2022-07-26T21:09:10.116Z,101976.65
2022-07-26T21:11:36.932Z,101975.61
2022-07-26T21:14:06.208Z,101976.47
2022-07-26T21:16:36.532Z,101980.89
2022-07-26T21:19:06.240Z,101981.72
2022-07-26T21:24:07.409Z,101985.5
2022-07-26T21:26:36.778Z,101983.14
2022-07-26T21:29:06.207Z,101985.35
2022-07-26T21:31:36.449Z,101983.51
2022-07-26T21:34:06.404Z,101984.36
2022-07-26T21:36:37.563Z,101981.34999999999
2022-07-26T21:39:06.821Z,101982.59000000001
2022-07-26T21:41:36.338Z,101982.37000000001
2022-07-26T21:44:06.360Z,101982.54
2022-07-26T21:46:36.685Z,101982.22
2022-07-26T21:49:06.581Z,101981.56999999999
2022-07-26T21:51:36.402Z,101978.3
2022-07-26T21:54:06.234Z,101982.92
2022-07-26T21:56:36.481Z,101979.14
2022-07-26T21:59:06.239Z,101979.64
2022-07-26T22:01:36.408Z,101980.86
2022-07-26T22:04:06.608Z,101984.01
2022-07-26T22:06:36.803Z,101985.25
2022-07-26T22:09:06.283Z,101986.73999999999
2022-07-26T22:11:36.191Z,101984.38
2022-07-26T22:14:07.511Z,101987.90000000001
2022-07-26T22:16:36.326Z,101984.16
2022-07-26T22:19:06.465Z,101987.31
2022-07-26T22:21:36.270Z,101984.34
2022-07-26T22:24:06.286Z,101982.34
2022-07-26T22:26:36.631Z,101985.83
2022-07-26T22:29:08.193Z,101987.78
2022-07-26T22:36:36.297Z,101994.18
2022-07-26T22:39:09.132Z,101991.42
2022-07-26T22:41:57.533Z,101987.14
2022-07-26T22:44:06.234Z,101991.18
2022-07-26T22:46:36.335Z,101997.64
2022-07-26T22:49:06.414Z,101997.76000000001
2022-07-26T22:51:36.402Z,101998.95
2022-07-26T22:54:07.378Z,101994.97
2022-07-26T22:56:36.207Z,101995.72
2022-07-26T23:01:36.341Z,101991.66
2022-07-26T23:04:06.524Z,101990.64
2022-07-26T23:06:36.236Z,101990.88
2022-07-26T23:11:36.259Z,101988.65
2022-07-26T23:14:06.307Z,101983.91
2022-07-26T23:16:36.926Z,101986.15999999999
2022-07-26T23:19:06.271Z,101985.67
2022-07-26T23:21:36.377Z,101986.61
2022-07-26T23:24:06.802Z,101988.09
2022-07-26T23:26:37.117Z,101989.09999999999
2022-07-26T23:29:07.386Z,101989.54
2022-07-26T23:31:37.112Z,101987.58
2022-07-26T23:34:06.270Z,101988.69
2022-07-26T23:36:36.326Z,101989.93000000001
2022-07-26T23:39:06.390Z,101990.75
2022-07-26T23:41:36.843Z,101985.86
2022-07-26T23:46:36.329Z,101985.35
2022-07-26T23:49:06.512Z,101982.5
2022-07-26T23:51:37.812Z,101984.73
2022-07-26T23:56:36.679Z,101985.02
2022-07-26T23:59:06.253Z,101982.22
